Nearby METAR Reports

 

KSJC - San Jose, California, USA
Distance from station: NE 14km
Updated: 26/01/2020 18:53
Mostly cloudy
Mostly cloudy
 Wind from N
Wind: N 7 km/h
Temperature: 14°C
Dew Point: 13°C
Humidity: 94%
Barometer: 1024 hPa
Clouds: Mostly cloudy
Visibility: 16 km
Cloud details: Few Clouds 61 m
Partly cloudy 213 m
Mostly cloudy 396 m
2020/01/26 17:53 KSJC 261753Z 36004KT 10SM FEW002 SCT007 BKN013 14/13 A3024 RMK AO2 RAE1654B35E46 SLP238 P0000 60011 T01440128 10144 20122 53024 $
KNUQ - Moffett Nas/Mtn, California, USA
Distance from station: N 14km
Updated: 21/11/2019 17:56
NOT Current

 
Barometer: 1011.2 hPa
2019/11/21 16:56 KNUQ 211656Z AUTO A2986 RMK AO2 SLP116 PWINO $
 
KPAO - Palo Alto, California, USA
Distance from station: NNW 23km
Updated: 26/01/2020 18:47
Mostly cloudy
Mostly cloudy
 Wind from NNW
Wind: NNW 6 km/h
Temperature: 14°C
Dew Point: 13°C
Humidity: 94%
Barometer: 1024 hPa
Clouds: Mostly cloudy
Visibility: 16 km
Cloud details: Partly cloudy 457 m
Mostly cloudy 914 m
2020/01/26 17:47 KPAO 261747Z 33003KT 10SM SCT015 BKN030 14/13 A3024
KRHV - San Jose/Reid, California, USA
Distance from station: ENE 19km
Updated: 26/01/2020 18:50
Overcast
Overcast
 Wind from N
Wind: N 9 km/h
Temperature: 14°C
Dew Point: 13°C
Humidity: 94%
Barometer: 1024 hPa
Clouds: Overcast
Visibility: 16 km
Cloud details: Partly cloudy 305 m
Overcast 914 m
2020/01/26 17:50 KRHV 261750Z 35005KT 10SM SCT010 OVC030 14/13 A3024
 
KOAK - Oakland, California, USA
Distance from station: NNW 50km
Updated: 26/01/2020 18:53
Mostly cloudy
Mostly cloudy
 Wind from WSW
Wind: WSW 9 km/h
Temperature: 16°C
Dew Point: 12°C
Humidity: 77%
Barometer: 1023.7 hPa
Clouds: Mostly cloudy
Visibility: 16 km
Cloud details: Partly cloudy 213 m
Mostly cloudy 853 m
2020/01/26 17:53 KOAK 261753Z 25005KT 10SM SCT007 BKN028 16/12 A3023 RMK AO2 SLP236 60008 T01560122 10156 20139 51022 $
KSQL - San Carlos Airpo, California, USA
Distance from station: NW 34km
Updated: 26/01/2020 18:48
Mostly cloudy
Mostly cloudy
 Wind from W
Wind: W 11 km/h
Temperature: 14°C
Dew Point: 12°C
Humidity: 88%
Barometer: 1024 hPa
Clouds: Mostly cloudy
Visibility: 16 km
Cloud details: Few Clouds 274 m
Partly cloudy 427 m
Mostly cloudy 579 m
2020/01/26 17:48 KSQL 261748Z 26006KT 10SM FEW009 SCT014 BKN019 14/12 A3024
 
KSFO - San Francisco, California, USA
Distance from station: NW 49km
Updated: 26/01/2020 17:56
Mostly cloudy
Mostly cloudy
 Wind from W
Wind: W 19 km/h
Temperature: 15°C
Dew Point: 12°C
Humidity: 82%
Barometer: 1023 hPa
Clouds: Mostly cloudy
Visibility: 13 km
Cloud details: Few Clouds 244 m
Mostly cloudy 792 m
Mostly cloudy 1311 m
2020/01/26 16:56 KSFO 261656Z 28010KT 8SM FEW008 BKN026 BKN043 15/12 A3021 RMK AO2 SLP229 T01500117
KE16 - San Martin, California, USA
Distance from station: ESE 43km
Updated: 14/11/2019 10:35
NOT Current
Overcast
Overcast
 Wind from SE
Wind: SE 11 km/h
Temperature: 12°C
Dew Point: 10°C
Humidity: 88%
Barometer: 1017.6 hPa
Clouds: Overcast
Visibility: 16 km
Cloud details: Overcast 427 m
2019/11/14 09:35 KE16 140935Z AUTO 13006KT 10SM OVC014 12/10 A3005 RMK AO2
 
KWVI - Watsonville, California, USA
Distance from station: SSE 44km
Updated: 26/01/2020 18:53
Overcast
Overcast
 Wind from WSW
Wind: WSW 9 km/h
Temperature: 14°C
Dew Point: 13°C
Humidity: 94%
Barometer: 1024 hPa
Clouds: Overcast
Visibility: 16 km
Cloud details: Overcast 91 m
2020/01/26 17:53 KWVI 261753Z AUTO 25005KT 10SM OVC003 14/13 A3024 RMK AO2 CIG 003V008 SLP241 60010 T01440133 10144 20128 51021
KHAF - Half Moon Bay, California, USA
Distance from station: WNW 50km
Updated: 26/01/2020 18:55
Mostly cloudy
Mostly cloudy
 Wind from NW
Wind: NW 11 km/h
Temperature: 13°C
Dew Point: 12°C
Humidity: 94%
Barometer: 1024 hPa
Clouds: Mostly cloudy
Visibility: 14 km
Cloud details: Mostly cloudy 579 m
2020/01/26 17:55 KHAF 261755Z AUTO 32006KT 9SM BKN019 13/12 A3024 RMK AO2
 
KHWD - Hayward, California, USA
Distance from station: N 44km
Updated: 26/01/2020 18:54
Mostly cloudy
Mostly cloudy
 Wind from W
Wind: W 11 km/h
Temperature: 14°C
Dew Point: 12°C
Humidity: 88%
Barometer: 1023.4 hPa
Clouds: Mostly cloudy
Cloud details: Mostly cloudy 853 m
2020/01/26 17:54 KHWD 261754Z 28006KT BKN028 14/12 A3022 RMK AO2 SLP244 60014 T01440117 10144 20122 51022 $
KLVK - Livermore, California, USA
Distance from station: NNE 51km
Updated: 26/01/2020 18:53
Overcast
Overcast
 Wind from W
Wind: W 17 km/h
Temperature: 13°C
Dew Point: 12°C
Humidity: 94%
Barometer: 1023.7 hPa
Clouds: Overcast
Visibility: 16 km
Cloud details: Few Clouds 305 m
Few Clouds 488 m
Overcast 671 m
2020/01/26 17:53 KLVK 261753Z 27009KT 10SM FEW010 FEW016 OVC022 13/12 A3023 RMK AO2 SLP233 60011 T01330117 10133 20117 53025